createdAt,value
2016-01-18T06:01:59.472Z,18.19
2016-01-18T06:02:59.147Z,18.07
2016-01-18T06:03:59.446Z,18.14
2016-01-18T06:04:59.433Z,18.16
2016-01-18T06:05:59.529Z,18.19
2016-01-18T06:06:59.361Z,18.22
2016-01-18T06:07:59.504Z,18.35
2016-01-18T06:08:59.538Z,18.43
2016-01-18T06:09:59.853Z,18.49
2016-01-18T06:10:59.777Z,18.52
2016-01-18T06:11:59.734Z,18.5
2016-01-18T06:12:59.673Z,18.61
2016-01-18T06:13:59.848Z,18.57
2016-01-18T06:14:59.835Z,18.58
2016-01-18T06:15:59.650Z,18.64
2016-01-18T06:17:46.296Z,18.65
2016-01-18T06:18:46.128Z,18.76
2016-01-18T06:19:46.411Z,18.69
2016-01-18T06:20:46.383Z,18.69
2016-01-18T06:21:46.370Z,18.77
2016-01-18T06:22:46.310Z,18.71
2016-01-18T06:23:46.234Z,18.74
2016-01-18T06:24:46.253Z,18.8
2016-01-18T06:25:46.271Z,18.86
2016-01-18T06:26:46.320Z,18.76
2016-01-18T06:27:46.355Z,18.77
2016-01-18T06:28:46.389Z,18.82
2016-01-18T06:29:46.453Z,18.82
2016-01-18T06:30:46.456Z,18.83
2016-01-18T06:31:46.506Z,18.87
2016-01-18T06:32:46.572Z,18.87
2016-01-18T06:33:46.683Z,18.92
2016-01-18T06:34:46.624Z,18.92
2016-01-18T06:35:46.689Z,18.92
2016-01-18T06:36:46.754Z,18.92
2016-01-18T06:37:46.835Z,18.9
2016-01-18T06:38:46.791Z,18.99
2016-01-18T06:39:46.856Z,19.02
2016-01-18T06:40:46.874Z,18.99
2016-01-18T06:41:46.954Z,18.98
2016-01-18T06:42:46.958Z,19.11
2016-01-18T06:43:46.991Z,18.98
2016-01-18T06:44:47.494Z,18.99
2016-01-18T06:45:47.090Z,18.98
2016-01-18T06:46:47.124Z,19.02
2016-01-18T06:47:47.206Z,18.99
2016-01-18T06:48:47.209Z,19.06
2016-01-18T06:49:47.257Z,19.11
2016-01-18T06:50:47.292Z,19.02
2016-01-18T06:51:47.294Z,19.02
2016-01-18T06:52:47.329Z,19.14
2016-01-18T06:53:47.362Z,18.99
2016-01-18T06:54:47.443Z,19.18
2016-01-18T06:55:47.523Z,19.08
2016-01-18T06:56:47.542Z,19.15
2016-01-18T06:57:47.561Z,19.06
2016-01-18T06:58:47.594Z,18.99
2016-01-18T06:59:47.706Z,19.08
2016-01-18T07:00:47.678Z,19.11
2016-01-18T07:01:47.822Z,19.05
2016-01-18T07:02:47.777Z,19.15
2016-01-18T07:03:47.811Z,19.17
2016-01-18T07:04:47.876Z,19.15
2016-01-18T07:05:47.895Z,19.14
2016-01-18T07:06:47.944Z,19.09
2016-01-18T07:07:47.978Z,19.2
2016-01-18T07:08:47.996Z,19.14
2016-01-18T07:09:48.094Z,19.17
2016-01-18T07:10:48.110Z,19.15
2016-01-18T07:11:48.442Z,19.17
2016-01-18T07:12:48.319Z,19.11
2016-01-18T07:13:48.290Z,19.14
2016-01-18T07:14:48.279Z,19.17
2016-01-18T07:15:48.296Z,19.15
2016-01-18T07:16:48.377Z,19.21
2016-01-18T07:17:48.365Z,19.14
2016-01-18T07:18:48.523Z,19.17
2016-01-18T07:19:48.432Z,19.18
2016-01-18T07:20:48.356Z,19.13
2016-01-18T07:21:48.531Z,19.14
2016-01-18T07:22:48.659Z,19.15
2016-01-18T07:23:48.662Z,19.11
2016-01-18T07:24:48.649Z,19.05
2016-01-18T07:25:48.667Z,19.02
2016-01-18T07:26:48.779Z,19.01
2016-01-18T07:27:48.750Z,18.98
2016-01-18T07:28:48.832Z,19.02
2016-01-18T07:29:48.912Z,18.99
2016-01-18T07:30:48.914Z,18.92
2016-01-18T07:31:48.918Z,18.89
2016-01-18T07:32:48.967Z,18.89
2016-01-18T07:33:49.017Z,18.9
2016-01-18T07:34:49.035Z,18.87
2016-01-18T07:35:49.085Z,18.9
2016-01-18T07:36:49.134Z,18.9
2016-01-18T07:37:49.168Z,18.87
2016-01-18T07:38:49.202Z,18.77
2016-01-18T07:39:49.783Z,18.8
2016-01-18T07:40:49.302Z,18.87
2016-01-18T07:41:49.352Z,18.84
2016-01-18T07:42:49.385Z,18.82
2016-01-18T07:43:49.435Z,18.77
2016-01-18T07:44:49.438Z,18.8
2016-01-18T07:45:49.487Z,18.73
2016-01-18T07:46:49.535Z,18.74
2016-01-18T07:47:49.585Z,18.77
2016-01-18T07:48:49.588Z,18.84
2016-01-18T07:49:49.623Z,18.74
2016-01-18T07:50:49.671Z,18.76
2016-01-18T07:51:49.690Z,18.71
2016-01-18T07:52:49.817Z,18.84
2016-01-18T07:53:49.804Z,18.82
2016-01-18T07:54:49.871Z,18.76
2016-01-18T07:55:49.889Z,18.84
2016-01-18T07:56:49.781Z,18.76
2016-01-18T07:57:49.972Z,18.84
2016-01-18T07:58:49.990Z,18.73
2016-01-18T07:59:50.040Z,18.83
2016-01-18T08:00:50.106Z,18.84
2016-01-18T08:01:50.123Z,18.86
2016-01-18T08:02:50.188Z,18.9
2016-01-18T08:03:50.207Z,18.84
2016-01-18T08:04:50.225Z,18.84
2016-01-18T08:05:50.306Z,18.82
2016-01-18T08:06:50.293Z,18.83
2016-01-18T08:07:50.389Z,18.79
2016-01-18T08:08:50.424Z,18.9
2016-01-18T08:09:50.457Z,18.95
2016-01-18T08:10:50.507Z,18.92
2016-01-18T08:11:50.510Z,18.84
2016-01-18T08:12:50.559Z,18.86
2016-01-18T08:13:50.593Z,18.76
2016-01-18T08:14:50.627Z,18.83
2016-01-18T08:15:50.724Z,18.9
2016-01-18T08:16:50.758Z,18.82
2016-01-18T08:17:50.744Z,18.86
2016-01-18T08:18:50.857Z,18.92
2016-01-18T08:19:50.844Z,18.94
2016-01-18T08:20:50.924Z,18.99
2016-01-18T08:21:50.912Z,19.02
2016-01-18T08:22:50.946Z,19.05
2016-01-18T08:23:51.042Z,19.06
2016-01-18T08:24:51.029Z,19.14
2016-01-18T08:25:51.095Z,19.13
2016-01-18T08:26:51.113Z,19.09
2016-01-18T08:27:51.211Z,19.05
2016-01-18T08:28:51.196Z,19.05
2016-01-18T08:29:51.325Z,19.05
2016-01-18T08:30:51.265Z,19.05
2016-01-18T08:31:51.315Z,18.98
2016-01-18T08:32:51.349Z,18.99
2016-01-18T08:33:51.446Z,18.98
2016-01-18T08:34:51.432Z,18.98
2016-01-18T08:35:51.498Z,19.09
2016-01-18T08:36:51.782Z,19.06
2016-01-18T08:37:51.581Z,19.05
2016-01-18T08:38:51.662Z,19.08
2016-01-18T08:39:51.648Z,19.06
2016-01-18T08:40:51.682Z,19.14
2016-01-18T08:41:51.732Z,19.05
2016-01-18T08:42:51.777Z,19.14
2016-01-18T08:43:51.766Z,19.02
2016-01-18T08:44:51.866Z,19.14
2016-01-18T08:45:51.839Z,19.2
2016-01-18T08:46:51.875Z,19.06
2016-01-18T08:47:51.961Z,19.13
2016-01-18T08:48:51.927Z,19.17
2016-01-18T08:49:51.972Z,19.15
2016-01-18T08:50:52.016Z,19.13
2016-01-18T08:51:52.045Z,19.18
2016-01-18T08:52:52.091Z,19.09
2016-01-18T08:53:52.155Z,19.01
2016-01-18T08:54:52.172Z,19.05
2016-01-18T08:55:52.188Z,19.05
2016-01-18T08:56:52.206Z,19.05
2016-01-18T08:57:52.300Z,18.98
2016-01-18T08:58:52.302Z,18.97
2016-01-18T08:59:52.335Z,18.87
2016-01-18T09:00:52.399Z,18.98
2016-01-18T09:01:52.417Z,18.94
2016-01-18T09:02:52.451Z,18.83
2016-01-18T09:03:52.906Z,18.82
2016-01-18T09:04:52.564Z,18.84
2016-01-18T09:05:52.583Z,18.77
2016-01-18T09:06:52.663Z,18.83
2016-01-18T09:07:52.650Z,18.83
2016-01-18T09:08:52.699Z,18.87
2016-01-18T09:09:52.717Z,18.89
2016-01-18T09:10:52.751Z,18.89
2016-01-18T09:11:52.801Z,18.82
2016-01-18T09:12:52.663Z,18.87
2016-01-18T09:13:52.870Z,18.94
2016-01-18T09:14:52.918Z,18.87
2016-01-18T09:15:55.078Z,18.92
2016-01-18T09:16:52.987Z,18.84
2016-01-18T09:17:53.006Z,18.89
2016-01-18T09:18:53.087Z,18.94
2016-01-18T09:19:53.105Z,18.87
2016-01-18T09:20:53.155Z,18.9
2016-01-18T09:21:53.173Z,18.9
2016-01-18T09:22:53.238Z,18.87
2016-01-18T09:23:53.257Z,18.92
2016-01-18T09:24:53.306Z,18.9
2016-01-18T09:25:53.340Z,18.92
2016-01-18T09:26:53.373Z,18.95
2016-01-18T09:27:53.439Z,18.9
2016-01-18T09:28:53.473Z,18.87
2016-01-18T09:29:53.492Z,18.83
2016-01-18T09:30:53.666Z,18.86
2016-01-18T09:31:53.590Z,18.84
2016-01-18T09:32:53.656Z,18.86
2016-01-18T09:33:53.674Z,18.84
2016-01-18T09:34:53.723Z,18.94
2016-01-18T09:35:53.772Z,18.86
2016-01-18T09:36:53.823Z,18.89
2016-01-18T09:37:53.841Z,18.94
2016-01-18T09:38:53.891Z,18.9
2016-01-18T09:39:53.940Z,18.94
2016-01-18T09:40:54.021Z,18.94
2016-01-18T09:41:54.007Z,18.97
2016-01-18T09:42:54.042Z,19.01
2016-01-18T09:43:54.107Z,19.08
2016-01-18T09:44:54.141Z,19.15
2016-01-18T09:45:54.160Z,19.08
2016-01-18T09:46:55.099Z,19.17
2016-01-18T09:48:08.821Z,19.14
2016-01-18T09:48:54.261Z,19.21
2016-01-18T09:49:54.310Z,19.14
2016-01-18T09:50:54.346Z,19.15
2016-01-18T09:51:54.393Z,19.17
2016-01-18T09:52:54.443Z,19.2
2016-01-18T09:53:54.462Z,19.17
2016-01-18T09:54:54.527Z,19.13
2016-01-18T09:55:54.546Z,19.15
2016-01-18T09:56:54.611Z,19.2
2016-01-18T09:57:54.645Z,19.15
2016-01-18T09:58:55.382Z,19.18
2016-01-18T09:59:54.712Z,19.09
2016-01-18T10:00:54.747Z,19.13
2016-01-18T10:01:54.796Z,19.06
2016-01-18T10:02:54.825Z,19.08
2016-01-18T10:04:27.221Z,19.2
2016-01-18T10:04:55.190Z,19.13
2016-01-18T10:05:56.005Z,19.17
2016-01-18T10:06:55.398Z,19.09
2016-01-18T10:07:56.011Z,19.14
2016-01-18T10:08:56.591Z,19.13
2016-01-18T10:09:56.453Z,18.98
2016-01-18T10:10:56.378Z,18.99
2016-01-18T10:11:56.349Z,19.08
2016-01-18T10:12:56.446Z,19.02
2016-01-18T10:13:56.745Z,19.02
2016-01-18T10:14:57.889Z,18.94
2016-01-18T10:15:56.314Z,18.87
2016-01-18T10:16:57.550Z,18.9
2016-01-18T10:17:57.881Z,18.92
2016-01-18T10:18:57.743Z,18.84
2016-01-18T10:19:56.419Z,18.94
2016-01-18T10:20:58.311Z,18.89
2016-01-18T10:21:55.564Z,18.87
2016-01-18T10:22:55.613Z,18.87
2016-01-18T10:23:55.648Z,18.86
2016-01-18T10:24:55.713Z,18.87
2016-01-18T10:25:55.747Z,18.9
2016-01-18T10:26:55.796Z,18.84
2016-01-18T10:27:55.814Z,18.86
2016-01-18T10:28:55.849Z,18.79
2016-01-18T10:29:55.930Z,18.89
2016-01-18T10:30:56.307Z,18.97
2016-01-18T10:31:56.356Z,18.87
2016-01-18T10:32:56.015Z,18.79
2016-01-18T10:33:56.049Z,18.8
2016-01-18T10:34:56.068Z,18.87
2016-01-18T10:35:56.601Z,18.86
2016-01-18T10:36:56.151Z,18.86
2016-01-18T10:37:56.216Z,18.92
2016-01-18T10:38:56.250Z,19.06
2016-01-18T10:39:56.300Z,19.05
2016-01-18T10:40:56.318Z,19.14
2016-01-18T10:41:56.399Z,19.17
2016-01-18T10:42:56.417Z,19.15
2016-01-18T10:43:56.498Z,19.17
2016-01-18T10:44:58.783Z,19.15
2016-01-18T10:45:57.816Z,19.27
2016-01-18T10:46:56.600Z,19.18
2016-01-18T10:47:56.712Z,19.23
2016-01-18T10:48:56.839Z,19.27
2016-01-18T10:49:57.577Z,19.24
2016-01-18T10:51:14.861Z,19.28
2016-01-18T10:51:57.880Z,19.25
2016-01-18T10:52:57.616Z,19.38
2016-01-18T10:53:57.416Z,19.25
2016-01-18T10:54:57.215Z,19.28
2016-01-18T10:55:56.953Z,19.31
2016-01-18T10:56:57.002Z,19.25
2016-01-18T10:57:57.035Z,19.24
2016-01-18T10:58:57.070Z,19.25
2016-01-18T10:59:57.087Z,19.35
2016-01-18T11:00:57.216Z,19.32
2016-01-18T11:01:57.234Z,19.32
2016-01-18T11:02:57.237Z,19.27
2016-01-18T11:03:57.270Z,19.23
2016-01-18T11:04:57.414Z,19.36
2016-01-18T11:05:57.339Z,19.31
2016-01-18T11:06:57.404Z,19.33
2016-01-18T11:07:57.406Z,19.32
2016-01-18T11:08:57.472Z,19.2
2016-01-18T11:09:57.490Z,19.31
2016-01-18T11:10:57.540Z,19.23
2016-01-18T11:11:57.683Z,19.23
2016-01-18T11:12:57.623Z,19.2
2016-01-18T11:13:57.673Z,19.17
2016-01-18T11:14:57.925Z,19.14
2016-01-18T11:15:57.741Z,19.17
2016-01-18T11:16:57.758Z,19.13
2016-01-18T11:17:57.825Z,19.14
2016-01-18T11:18:57.889Z,19.11
2016-01-18T11:19:57.908Z,19.08
2016-01-18T11:20:57.925Z,19.11
2016-01-18T11:21:57.960Z,19.05
2016-01-18T11:22:58.072Z,19.06
2016-01-18T11:23:58.059Z,19.13
2016-01-18T11:24:58.140Z,19.13
2016-01-18T11:25:58.158Z,19.15
2016-01-18T11:26:58.191Z,19.13
2016-01-18T11:27:58.320Z,19.17
2016-01-18T11:28:58.260Z,19.2
2016-01-18T11:29:58.309Z,19.2
2016-01-18T11:30:58.343Z,19.17
2016-01-18T11:31:58.377Z,19.18
2016-01-18T11:32:58.427Z,19.13
2016-01-18T11:33:58.492Z,19.15
2016-01-18T11:34:58.526Z,19.15
2016-01-18T11:35:58.576Z,19.13
2016-01-18T11:36:58.610Z,19.14
2016-01-18T11:37:58.643Z,19.09
2016-01-18T11:38:58.709Z,19.08
2016-01-18T11:39:58.696Z,19.06
2016-01-18T11:40:58.809Z,18.95
2016-01-18T11:41:58.795Z,19.09
2016-01-18T11:42:58.829Z,19.11
2016-01-18T11:43:59.034Z,19.08
2016-01-18T11:44:58.928Z,19.14
2016-01-18T11:45:58.931Z,19.15
2016-01-18T11:46:58.965Z,19.18
2016-01-18T11:47:59.108Z,19.25
2016-01-18T11:48:59.063Z,19.28
2016-01-18T11:49:59.098Z,19.28
2016-01-18T11:50:59.303Z,19.28
2016-01-18T11:51:59.259Z,19.21
2016-01-18T11:52:59.246Z,19.31
2016-01-18T11:53:59.264Z,19.24
2016-01-18T11:55:01.971Z,19.28
2016-01-18T11:55:59.489Z,19.23
2016-01-18T11:56:59.476Z,19.24
2016-01-18T11:57:59.432Z,19.27
2016-01-18T11:58:59.669Z,19.33
2016-01-18T11:59:59.921Z,19.31
2016-01-18T12:01:11.096Z,19.39
2016-01-18T12:02:00.115Z,19.38
2016-01-18T12:02:59.618Z,19.39
2016-01-18T12:03:59.745Z,19.36
2016-01-18T12:04:59.716Z,19.33
2016-01-18T12:05:59.859Z,19.32
2016-01-18T12:06:59.847Z,19.36
2016-01-18T12:07:59.818Z,19.38
2016-01-18T12:08:59.915Z,19.36
2016-01-18T12:09:59.948Z,19.45
2016-01-18T12:10:59.966Z,19.35
2016-01-18T12:12:00.001Z,19.33
2016-01-18T12:13:00.051Z,19.36
2016-01-18T12:14:00.053Z,19.48
2016-01-18T12:15:00.086Z,19.35
2016-01-18T12:16:00.152Z,19.38
2016-01-18T12:17:00.202Z,19.38
2016-01-18T12:18:00.236Z,19.48
2016-01-18T12:19:00.269Z,19.38
2016-01-18T12:20:00.288Z,19.4
2016-01-18T12:21:00.353Z,19.38
2016-01-18T12:22:00.387Z,19.33
2016-01-18T12:23:00.421Z,19.33
2016-01-18T12:24:00.470Z,19.35
2016-01-18T12:25:00.552Z,19.39
2016-01-18T12:26:00.585Z,19.33
2016-01-18T12:27:00.588Z,19.35
2016-01-18T12:28:00.638Z,19.39
2016-01-18T12:29:00.656Z,19.28
2016-01-18T12:30:00.721Z,19.35
2016-01-18T12:31:00.786Z,19.27
2016-01-18T12:32:00.804Z,19.27
2016-01-18T12:33:00.823Z,19.27
2016-01-18T12:34:00.872Z,19.23
2016-01-18T12:35:00.891Z,19.28
2016-01-18T12:36:00.940Z,19.27
2016-01-18T12:37:00.974Z,19.24
2016-01-18T12:38:01.086Z,19.31
2016-01-18T12:39:01.090Z,19.27
2016-01-18T12:40:01.138Z,19.23
2016-01-18T12:41:01.125Z,19.31
2016-01-18T12:42:01.176Z,19.25
2016-01-18T12:43:01.193Z,19.36
2016-01-18T12:44:01.321Z,19.27
2016-01-18T12:45:01.292Z,19.32
2016-01-18T12:46:01.342Z,19.31
2016-01-18T12:47:01.375Z,19.36
2016-01-18T12:48:01.425Z,19.36
2016-01-18T12:49:01.444Z,19.35
2016-01-18T12:50:01.493Z,19.38
2016-01-18T12:51:01.574Z,19.5
2016-01-18T12:52:01.577Z,19.5
2016-01-18T12:53:01.627Z,19.48
2016-01-18T12:54:01.661Z,19.5
2016-01-18T12:55:01.741Z,19.61
2016-01-18T12:56:01.744Z,19.65
2016-01-18T12:57:01.794Z,19.72
2016-01-18T12:58:01.812Z,19.63
2016-01-18T12:59:01.861Z,19.68
2016-01-18T13:00:01.879Z,19.69
2016-01-18T13:01:02.117Z,19.83
2016-01-18T13:02:02.276Z,20.2
2016-01-18T13:03:05.200Z,20.98
2016-01-18T13:04:02.062Z,21.61
2016-01-18T13:05:02.080Z,21.7
2016-01-18T13:06:02.146Z,21.97
2016-01-18T13:07:02.196Z,22.54
2016-01-18T13:08:02.229Z,22.89
2016-01-18T13:09:02.263Z,22.68
2016-01-18T13:10:02.297Z,22.39
2016-01-18T13:11:02.410Z,21.82
2016-01-18T13:12:02.396Z,21.33
2016-01-18T13:13:02.415Z,20.91
2016-01-18T13:14:02.479Z,20.66
2016-01-18T13:15:02.514Z,20.38
2016-01-18T13:16:02.548Z,20.27
2016-01-18T13:17:02.581Z,20.2
2016-01-18T13:18:02.631Z,20.08
2016-01-18T13:19:02.509Z,20.06
2016-01-18T13:20:02.714Z,20.06
2016-01-18T13:21:02.748Z,19.98
2016-01-18T13:22:02.798Z,19.93
2016-01-18T13:23:02.816Z,19.79
2016-01-18T13:24:02.898Z,19.8
2016-01-18T13:25:02.900Z,19.73
2016-01-18T13:26:02.950Z,19.63
2016-01-18T13:27:03.015Z,19.69
2016-01-18T13:28:03.033Z,19.65
2016-01-18T13:29:03.052Z,19.65
2016-01-18T13:30:03.101Z,19.6
2016-01-18T13:31:03.151Z,19.6
2016-01-18T13:32:03.200Z,19.69
2016-01-18T13:33:03.234Z,19.54
2016-01-18T13:34:03.268Z,19.48
2016-01-18T13:35:03.318Z,19.43
2016-01-18T13:36:03.352Z,19.48
2016-01-18T13:37:03.402Z,19.42
2016-01-18T13:38:03.435Z,19.39
2016-01-18T13:39:03.484Z,19.48
2016-01-18T13:40:03.504Z,19.46
2016-01-18T13:41:03.552Z,19.43
2016-01-18T13:42:03.587Z,19.48
2016-01-18T13:43:03.637Z,19.4
2016-01-18T13:44:03.701Z,19.39
2016-01-18T13:45:03.720Z,19.31
2016-01-18T13:46:03.753Z,19.32
2016-01-18T13:47:03.865Z,19.31
2016-01-18T13:48:03.821Z,19.24
2016-01-18T13:49:03.887Z,19.28
2016-01-18T13:50:03.905Z,19.25
2016-01-18T13:51:03.970Z,18.95
2016-01-18T13:52:04.004Z,18.69
2016-01-18T13:53:04.039Z,18.44
2016-01-18T13:54:04.072Z,18
2016-01-18T13:55:04.122Z,17.7
2016-01-18T13:56:04.171Z,17.47
2016-01-18T13:57:04.205Z,17.47
2016-01-18T13:58:04.223Z,17.08
2016-01-18T13:59:04.273Z,16.73
2016-01-18T14:00:04.322Z,16.55
2016-01-18T14:01:04.341Z,16.45
2016-01-18T14:02:04.375Z,16.55
2016-01-18T14:03:04.424Z,16.78
2016-01-18T14:04:04.458Z,16.82
2016-01-18T14:05:04.491Z,16.77
2016-01-18T14:06:04.541Z,16.65
2016-01-18T14:07:04.561Z,16.53
2016-01-18T14:08:04.610Z,16.4
2016-01-18T14:09:04.644Z,16.3
2016-01-18T14:10:04.693Z,16.3
2016-01-18T14:11:04.711Z,16.34
2016-01-18T14:12:04.777Z,16.29
2016-01-18T14:13:04.810Z,16.14
2016-01-18T14:14:04.813Z,16.04
2016-01-18T14:15:04.878Z,15.97
2016-01-18T14:16:04.928Z,16.41
2016-01-18T14:17:04.946Z,16.7
2016-01-18T14:18:04.996Z,17.05
2016-01-18T14:19:05.015Z,17.17
2016-01-18T14:20:05.048Z,17.47
2016-01-18T14:21:05.098Z,17.63
2016-01-18T14:22:05.148Z,17.71
2016-01-18T14:23:05.665Z,17.84
2016-01-18T14:24:05.200Z,17.91
2016-01-18T14:25:05.250Z,17.91
2016-01-18T14:26:05.298Z,17.95
2016-01-18T14:27:05.317Z,17.92
2016-01-18T14:28:05.366Z,18.04
2016-01-18T14:29:05.385Z,18.02
2016-01-18T14:30:05.466Z,18.1
2016-01-18T14:31:05.484Z,18.03
2016-01-18T14:32:05.362Z,18.06
2016-01-18T14:33:05.567Z,18.06
2016-01-18T14:34:05.586Z,18.09
2016-01-18T14:35:05.479Z,18.07
2016-01-18T14:36:05.669Z,18.07
2016-01-18T14:37:05.735Z,18.03
2016-01-18T14:38:05.753Z,17.98
2016-01-18T14:39:05.802Z,18.07
2016-01-18T14:40:05.836Z,18.02
2016-01-18T14:41:05.855Z,18.07
2016-01-18T14:42:05.936Z,18.09
2016-01-18T14:43:05.938Z,17.96
2016-01-18T14:44:05.987Z,18.06
2016-01-18T14:45:06.021Z,18.03
2016-01-18T14:46:06.088Z,18.09
2016-01-18T14:47:06.168Z,18.06
2016-01-18T14:48:06.154Z,18.04
2016-01-18T14:49:06.189Z,18
2016-01-18T14:50:06.238Z,18.04
2016-01-18T14:51:06.273Z,18.04
2016-01-18T14:52:06.290Z,18.03
2016-01-18T14:53:06.325Z,18.06
2016-01-18T14:54:06.389Z,18
2016-01-18T14:55:06.409Z,17.96
2016-01-18T14:56:06.458Z,17.91
2016-01-18T14:57:06.476Z,17.96
2016-01-18T14:58:06.541Z,17.95
2016-01-18T14:59:06.903Z,17.92
2016-01-18T15:00:06.609Z,17.95
2016-01-18T15:01:06.642Z,17.89
2016-01-18T15:02:06.692Z,17.96
2016-01-18T15:03:06.727Z,17.95
2016-01-18T15:04:06.761Z,18.03
2016-01-18T15:05:06.794Z,18.07
2016-01-18T15:06:06.828Z,18.18
2016-01-18T15:07:06.878Z,18.27
2016-01-18T15:08:06.912Z,18.58
2016-01-18T15:09:06.946Z,18.77
2016-01-18T15:10:07.011Z,18.84
2016-01-18T15:11:07.030Z,19.14
2016-01-18T15:12:07.079Z,19.23
2016-01-18T15:13:07.097Z,19.4
2016-01-18T15:14:07.162Z,19.64
2016-01-18T15:15:07.181Z,19.73
2016-01-18T15:16:07.230Z,19.87
2016-01-18T15:17:07.265Z,20.1
2016-01-18T15:18:07.329Z,20.09
2016-01-18T15:19:07.348Z,20.15
2016-01-18T15:20:07.398Z,20.23
2016-01-18T15:21:07.416Z,20.42
2016-01-18T15:22:07.481Z,20.37
2016-01-18T15:23:07.499Z,20.5
2016-01-18T15:24:07.548Z,20.65
2016-01-18T15:25:07.598Z,20.64
2016-01-18T15:26:07.632Z,20.61
2016-01-18T15:27:07.681Z,20.62
2016-01-18T15:28:07.715Z,20.59
2016-01-18T15:29:07.750Z,20.62
2016-01-18T15:30:07.800Z,20.79
2016-01-18T15:31:07.834Z,20.8
2016-01-18T15:32:07.883Z,20.84
2016-01-18T15:33:08.198Z,20.86
2016-01-18T15:34:07.981Z,20.86
2016-01-18T15:35:08.078Z,20.82
2016-01-18T15:36:08.050Z,20.83
2016-01-18T15:37:08.069Z,20.75
2016-01-18T15:38:08.103Z,20.72
2016-01-18T15:39:08.167Z,20.66
2016-01-18T15:40:08.201Z,20.66
2016-01-18T15:41:13.750Z,20.68
2016-01-18T15:42:08.300Z,20.64
2016-01-18T15:43:08.319Z,20.65
2016-01-18T15:44:08.353Z,20.66
2016-01-18T15:45:08.402Z,20.65
2016-01-18T15:46:08.436Z,20.66
2016-01-18T15:47:08.784Z,20.59
2016-01-18T15:48:08.661Z,20.51
2016-01-18T15:49:08.586Z,20.43
2016-01-18T15:50:08.605Z,20.47
2016-01-18T15:51:08.685Z,20.33
2016-01-18T15:52:08.672Z,20.38
2016-01-18T15:53:08.738Z,20.4
2016-01-18T15:54:08.771Z,20.24
2016-01-18T15:55:08.805Z,20.26
2016-01-18T15:56:08.839Z,20.28
2016-01-18T15:57:08.904Z,20.3
2016-01-18T15:58:08.938Z,20.18
2016-01-18T15:59:08.987Z,20.16
2016-01-18T16:00:09.007Z,20.19
2016-01-18T16:01:09.055Z,20.18
2016-01-18T16:02:09.090Z,20.2
2016-01-18T16:03:09.139Z,20.05
2016-01-18T16:04:09.157Z,20
2016-01-18T16:05:09.223Z,20.06
2016-01-18T16:06:09.241Z,20.08
2016-01-18T16:07:09.290Z,20.05
2016-01-18T16:08:09.324Z,20.01
2016-01-18T16:09:09.390Z,19.95
2016-01-18T16:10:09.565Z,19.88
2016-01-18T16:11:09.739Z,19.83
2016-01-18T16:12:09.507Z,19.79
2016-01-18T16:13:09.541Z,19.83
2016-01-18T16:14:09.576Z,19.79
2016-01-18T16:15:09.656Z,19.82
2016-01-18T16:16:09.659Z,19.76
2016-01-18T16:17:09.692Z,19.76
2016-01-18T16:18:09.743Z,19.64
2016-01-18T16:19:09.775Z,19.68
2016-01-18T16:20:09.825Z,19.71
2016-01-18T16:21:09.891Z,19.69
2016-01-18T16:22:09.894Z,19.63
2016-01-18T16:23:09.943Z,19.58
2016-01-18T16:24:09.977Z,19.57
2016-01-18T16:25:10.042Z,19.63
2016-01-18T16:26:10.061Z,19.53
2016-01-18T16:27:10.094Z,19.48
2016-01-18T16:28:10.144Z,19.57
2016-01-18T16:29:13.303Z,19.51
2016-01-18T16:30:10.477Z,19.48
2016-01-18T16:31:10.258Z,19.38
2016-01-18T16:32:10.341Z,19.48
2016-01-18T16:33:10.358Z,19.5
2016-01-18T16:34:10.392Z,19.36
2016-01-18T16:35:10.441Z,19.39
2016-01-18T16:36:10.897Z,19.36
2016-01-18T16:37:10.510Z,19.36
2016-01-18T16:38:10.544Z,19.33
2016-01-18T16:39:10.577Z,19.28
2016-01-18T16:40:10.657Z,19.27
2016-01-18T16:41:10.661Z,19.24
2016-01-18T16:42:10.726Z,19.33
2016-01-18T16:43:10.745Z,19.39
2016-01-18T16:44:10.810Z,19.36
2016-01-18T16:45:10.843Z,19.32
2016-01-18T16:46:10.862Z,19.25
2016-01-18T16:47:10.911Z,19.36
2016-01-18T16:48:10.945Z,19.31
2016-01-18T16:49:10.995Z,19.33
2016-01-18T16:50:11.029Z,19.23
2016-01-18T16:51:11.094Z,19.14
2016-01-18T16:52:11.112Z,19.15
2016-01-18T16:53:11.161Z,19.17
2016-01-18T16:54:11.180Z,19.18
2016-01-18T16:55:11.245Z,19.13
2016-01-18T16:56:11.264Z,19.14
2016-01-18T16:57:11.313Z,19.17
2016-01-18T16:58:11.363Z,19.14
2016-01-18T16:59:16.194Z,19.11
2016-01-18T17:00:11.430Z,19.2
2016-01-18T17:01:11.464Z,19.21
2016-01-18T17:02:11.514Z,19.18
2016-01-18T17:03:11.736Z,19.17
2016-01-18T17:04:11.630Z,19.23
2016-01-18T17:05:11.632Z,19.17
2016-01-18T17:06:11.682Z,19.18
2016-01-18T17:07:11.701Z,19.23
2016-01-18T17:08:11.750Z,19.15
2016-01-18T17:09:11.799Z,19.15
2016-01-18T17:10:11.849Z,19.21
2016-01-18T17:11:11.867Z,19.25
2016-01-18T17:12:11.917Z,19.25
2016-01-18T17:13:11.982Z,19.21
2016-01-18T17:14:12.000Z,19.21
2016-01-18T17:15:12.035Z,19.25
2016-01-18T17:16:12.069Z,19.35
2016-01-18T17:17:12.143Z,19.33
2016-01-18T17:18:12.176Z,19.35
2016-01-18T17:19:12.180Z,19.32
2016-01-18T17:20:12.245Z,19.25
2016-01-18T17:21:12.264Z,19.36
2016-01-18T17:22:12.312Z,19.32
2016-01-18T17:23:12.348Z,19.39
2016-01-18T17:24:12.662Z,19.33
2016-01-18T17:25:12.431Z,19.4
2016-01-18T17:26:12.481Z,19.5
2016-01-18T17:27:12.530Z,19.54
2016-01-18T17:28:12.548Z,19.65
2016-01-18T17:29:12.597Z,19.72
2016-01-18T17:30:12.631Z,19.76
2016-01-18T17:31:12.681Z,19.76
2016-01-18T17:32:12.730Z,19.78
2016-01-18T17:33:12.937Z,19.93
2016-01-18T17:34:12.799Z,19.93
2016-01-18T17:35:12.832Z,19.98
2016-01-18T17:36:12.897Z,19.94
2016-01-18T17:37:12.916Z,19.95
2016-01-18T17:38:12.981Z,20.06
2016-01-18T17:39:13.000Z,20.01
2016-01-18T17:40:13.033Z,20.06
2016-01-18T17:41:13.098Z,20.05
2016-01-18T17:42:13.132Z,20
2016-01-18T17:43:13.183Z,19.95
2016-01-18T17:44:13.216Z,20
2016-01-18T17:45:13.249Z,19.98
2016-01-18T17:46:13.315Z,20.06
2016-01-18T17:47:13.349Z,20.01
2016-01-18T17:48:13.368Z,20
2016-01-18T17:49:13.432Z,20.05
2016-01-18T17:50:13.442Z,19.98
2016-01-18T17:51:13.498Z,20.01
2016-01-18T17:52:13.507Z,20.03
2016-01-18T17:53:13.548Z,20
2016-01-18T17:54:13.573Z,20.03
2016-01-18T17:55:13.651Z,20.06
2016-01-18T17:56:13.650Z,19.9
2016-01-18T17:57:13.681Z,19.94
2016-01-18T17:58:13.727Z,19.93
2016-01-18T17:59:13.758Z,19.91
2016-01-18T18:00:13.790Z,19.94
2016-01-18T18:01:13.853Z,19.93
2016-01-18T18:02:13.888Z,19.93
2016-01-18T18:03:13.936Z,19.91
2016-01-18T18:04:13.968Z,19.87
2016-01-18T18:05:14.017Z,19.88
2016-01-18T18:06:14.035Z,19.88
2016-01-18T18:07:14.084Z,19.9
2016-01-18T18:08:14.118Z,19.95
2016-01-18T18:09:14.167Z,20
2016-01-18T18:10:14.217Z,19.94
2016-01-18T18:11:14.251Z,19.94
2016-01-18T18:12:14.316Z,19.88
2016-01-18T18:13:14.334Z,19.86
2016-01-18T18:14:14.384Z,19.86
2016-01-18T18:15:14.402Z,19.88
2016-01-18T18:16:14.436Z,19.79
2016-01-18T18:17:14.485Z,19.75
2016-01-18T18:18:14.551Z,19.82
2016-01-18T18:19:14.585Z,19.79
2016-01-18T18:20:14.603Z,19.8
2016-01-18T18:21:14.638Z,19.87
2016-01-18T18:22:14.671Z,19.79
2016-01-18T18:23:14.736Z,19.76
2016-01-18T18:24:14.770Z,19.78
2016-01-18T18:25:14.804Z,19.78
2016-01-18T18:26:14.854Z,19.79
2016-01-18T18:27:14.887Z,19.75
2016-01-18T18:28:14.922Z,19.68
2016-01-18T18:29:14.956Z,19.69
2016-01-18T18:30:15.021Z,19.71
2016-01-18T18:31:14.367Z,19.68
2016-01-18T18:32:15.088Z,19.65
2016-01-18T18:33:15.123Z,19.63
2016-01-18T18:34:15.156Z,19.63
2016-01-18T18:35:15.222Z,19.64
2016-01-18T18:36:15.256Z,19.68
2016-01-18T18:37:15.305Z,19.68
2016-01-18T18:38:15.323Z,19.65
2016-01-18T18:39:15.372Z,19.54
2016-01-18T18:40:15.408Z,19.61
2016-01-18T18:41:15.472Z,19.58
2016-01-18T18:42:15.506Z,19.64
2016-01-18T18:43:15.555Z,19.63
2016-01-18T18:44:15.574Z,19.63
2016-01-18T18:45:15.624Z,19.58
2016-01-18T18:46:15.657Z,19.61
2016-01-18T18:47:15.708Z,19.58
2016-01-18T18:48:15.741Z,19.51
2016-01-18T18:49:15.774Z,19.58
2016-01-18T18:50:15.824Z,19.51
2016-01-18T18:51:15.843Z,19.53
2016-01-18T18:52:15.908Z,19.55
2016-01-18T18:53:15.973Z,19.55
2016-01-18T18:54:15.991Z,19.53
2016-01-18T18:55:16.026Z,19.61
2016-01-18T18:56:16.060Z,19.63
2016-01-18T18:57:16.124Z,19.63
2016-01-18T18:58:16.126Z,19.61